createdAt,value
2018-03-25T00:02:25.221Z,92.16
2018-03-25T00:04:54.368Z,91.98
2018-03-25T00:07:24.274Z,92.38
2018-03-25T00:09:53.130Z,92.35
2018-03-25T00:12:22.298Z,92.28
2018-03-25T00:14:52.403Z,92.14
2018-03-25T00:17:22.363Z,92.27
2018-03-25T00:19:53.238Z,92.31
2018-03-25T00:22:22.302Z,92.25
2018-03-25T00:24:51.601Z,92.34
2018-03-25T00:29:56.141Z,91.77
2018-03-25T00:32:26.112Z,92.24
2018-03-25T00:34:55.327Z,92.56
2018-03-25T00:37:24.351Z,91.85
2018-03-25T00:39:53.344Z,91.87
2018-03-25T00:42:26.076Z,92.26
2018-03-25T00:44:55.021Z,92.30
2018-03-25T00:47:24.865Z,92.71
2018-03-25T00:49:55.311Z,92.77
2018-03-25T00:52:24.457Z,93.00
2018-03-25T00:54:53.446Z,93.79
2018-03-25T00:59:57.405Z,93.76
2018-03-25T01:02:27.394Z,92.92
2018-03-25T01:04:57.305Z,93.37
2018-03-25T01:07:27.166Z,92.87
2018-03-25T01:09:56.152Z,93.38
2018-03-25T01:12:25.150Z,93.38
2018-03-25T01:14:54.206Z,93.54
2018-03-25T01:17:24.222Z,92.95
2018-03-25T01:19:54.076Z,93.06
2018-03-25T01:22:23.233Z,92.69
2018-03-25T01:24:53.045Z,92.84
2018-03-25T01:27:22.835Z,92.73
2018-03-25T01:29:51.840Z,92.82
2018-03-25T01:32:22.078Z,92.20
2018-03-25T01:34:55.270Z,93.01
2018-03-25T01:37:24.348Z,93.14
2018-03-25T01:39:53.563Z,92.97
2018-03-25T01:44:57.937Z,93.61
2018-03-25T01:47:27.657Z,93.58
2018-03-25T01:49:56.737Z,93.61
2018-03-25T01:52:26.598Z,93.50
2018-03-25T01:54:56.946Z,93.30
2018-03-25T01:57:27.682Z,93.51
2018-03-25T01:59:57.708Z,94.03
2018-03-25T02:02:26.789Z,93.88
2018-03-25T02:04:55.964Z,93.51
2018-03-25T02:07:25.192Z,93.33
2018-03-25T02:09:56.190Z,92.84
2018-03-25T02:12:25.835Z,93.19
2018-03-25T02:14:55.802Z,93.42
2018-03-25T02:17:25.053Z,93.17
2018-03-25T02:22:28.532Z,92.59
2018-03-25T02:24:57.504Z,92.50
2018-03-25T02:27:28.142Z,92.06
2018-03-25T02:29:57.090Z,92.04
2018-03-25T02:32:26.183Z,92.14
2018-03-25T02:37:30.580Z,91.59
2018-03-25T02:40:00.162Z,90.70
2018-03-25T02:42:29.370Z,90.94
2018-03-25T02:45:00.374Z,90.97
2018-03-25T02:47:32.065Z,90.71
2018-03-25T02:50:01.969Z,90.93
2018-03-25T02:52:30.930Z,90.87
2018-03-25T02:55:00.884Z,90.69
2018-03-25T02:57:30.972Z,89.99
2018-03-25T03:00:00.059Z,89.88
2018-03-25T03:02:30.917Z,89.98
2018-03-25T03:05:01.354Z,90.28
2018-03-25T03:07:31.438Z,90.36
2018-03-25T03:10:00.634Z,90.12
2018-03-25T03:12:30.547Z,90.20
2018-03-25T03:14:59.694Z,89.57
2018-03-25T03:17:28.769Z,89.61
2018-03-25T03:19:58.648Z,89.45
2018-03-25T03:22:29.782Z,88.47
2018-03-25T03:24:59.098Z,88.58
2018-03-25T03:27:28.134Z,88.41
2018-03-25T03:29:58.090Z,88.30
2018-03-25T03:32:28.015Z,88.10
2018-03-25T03:34:57.965Z,87.90
2018-03-25T03:37:28.463Z,87.57
2018-03-25T03:39:57.606Z,87.89
2018-03-25T03:42:27.581Z,87.69
2018-03-25T03:44:59.136Z,86.95
2018-03-25T03:47:30.588Z,86.81
2018-03-25T03:49:59.885Z,86.44
2018-03-25T03:52:28.825Z,86.15
2018-03-25T03:54:58.702Z,86.00
2018-03-25T03:57:28.410Z,86.06
2018-03-25T03:59:57.746Z,85.91
2018-03-25T04:02:26.802Z,85.73
2018-03-25T04:04:55.999Z,85.50
2018-03-25T04:07:25.954Z,85.48
2018-03-25T04:09:55.831Z,85.20
2018-03-25T04:12:25.889Z,84.87
2018-03-25T04:14:54.885Z,84.48
2018-03-25T04:17:24.086Z,83.80
2018-03-25T04:19:53.276Z,83.69
2018-03-25T04:22:22.385Z,84.30
2018-03-25T04:24:53.518Z,84.86
2018-03-25T04:27:24.974Z,84.32
2018-03-25T04:29:54.030Z,83.51
2018-03-25T04:32:23.019Z,83.42
2018-03-25T04:34:53.238Z,82.97
2018-03-25T04:37:22.174Z,82.90
2018-03-25T04:39:51.128Z,83.23
2018-03-25T04:42:20.869Z,82.89
2018-03-25T04:44:50.888Z,82.46
2018-03-25T04:47:20.768Z,83.15
2018-03-25T04:49:52.107Z,82.83
2018-03-25T04:52:22.021Z,83.12
2018-03-25T04:54:51.606Z,82.63
2018-03-25T04:57:21.561Z,82.75
2018-03-25T04:59:50.778Z,82.32
2018-03-25T05:02:20.397Z,81.99
2018-03-25T05:04:50.115Z,82.27
2018-03-25T05:07:19.105Z,81.63
2018-03-25T05:09:48.985Z,81.87
2018-03-25T05:12:18.936Z,81.38
2018-03-25T05:14:48.820Z,81.46
2018-03-25T05:17:18.626Z,81.53
2018-03-25T05:19:47.827Z,81.19
2018-03-25T05:22:16.840Z,81.33
2018-03-25T05:24:46.017Z,81.22
2018-03-25T05:27:15.974Z,81.39
2018-03-25T05:29:45.851Z,81.65
2018-03-25T05:32:15.596Z,80.84
2018-03-25T05:34:44.904Z,81.51
2018-03-25T05:37:15.335Z,81.35
2018-03-25T05:39:44.276Z,81.26
2018-03-25T05:42:13.480Z,80.97
2018-03-25T05:44:43.324Z,81.40
2018-03-25T05:47:14.000Z,81.38
2018-03-25T05:52:18.339Z,80.83
2018-03-25T05:54:47.257Z,80.42
2018-03-25T05:57:16.419Z,80.38
2018-03-25T05:59:46.523Z,80.05
2018-03-25T06:02:15.507Z,80.00
2018-03-25T06:04:45.327Z,79.78
2018-03-25T06:07:14.267Z,79.69
2018-03-25T06:09:43.467Z,79.79
2018-03-25T06:12:14.836Z,79.14
2018-03-25T06:14:44.339Z,79.67
2018-03-25T06:17:14.163Z,79.56
2018-03-25T06:19:43.526Z,79.14
2018-03-25T06:22:12.531Z,79.49
2018-03-25T06:24:41.743Z,79.66
2018-03-25T06:27:13.617Z,80.08
2018-03-25T06:29:42.587Z,79.88
2018-03-25T06:32:11.703Z,79.72
2018-03-25T06:34:43.027Z,79.46
2018-03-25T06:37:23.823Z,79.89
2018-03-25T06:39:54.627Z,79.57
2018-03-25T06:42:23.715Z,79.49
2018-03-25T06:44:53.763Z,79.47
2018-03-25T06:47:23.691Z,79.93
2018-03-25T06:49:52.725Z,79.10
2018-03-25T06:52:21.790Z,78.72
2018-03-25T06:54:51.454Z,78.98
2018-03-25T06:57:21.857Z,78.99
2018-03-25T06:59:52.548Z,78.56
2018-03-25T07:02:22.411Z,78.84
2018-03-25T07:04:52.488Z,79.05
2018-03-25T07:07:21.572Z,79.26
2018-03-25T07:09:50.715Z,78.76
2018-03-25T07:12:19.709Z,79.06
2018-03-25T07:14:48.922Z,79.96
2018-03-25T07:17:18.065Z,79.86
2018-03-25T07:19:48.217Z,80.75
2018-03-25T07:22:19.105Z,80.68
2018-03-25T07:24:48.123Z,81.78
2018-03-25T07:27:17.132Z,81.98
2018-03-25T07:29:46.313Z,80.69
2018-03-25T07:32:19.497Z,81.38
2018-03-25T07:34:54.744Z,81.74
2018-03-25T07:37:25.796Z,82.02
2018-03-25T07:39:56.569Z,81.50
2018-03-25T07:42:26.586Z,82.04
2018-03-25T07:47:34.888Z,81.35
2018-03-25T07:50:04.079Z,81.85
2018-03-25T07:52:34.629Z,81.76
2018-03-25T07:55:04.627Z,81.24
2018-03-25T07:57:34.735Z,81.26
2018-03-25T08:00:04.067Z,81.63
2018-03-25T08:02:33.217Z,81.74
2018-03-25T08:05:02.441Z,81.89
2018-03-25T08:10:06.571Z,82.73
2018-03-25T08:12:37.247Z,82.46
2018-03-25T08:15:07.400Z,81.76
2018-03-25T08:17:36.828Z,82.61
2018-03-25T08:20:06.796Z,82.85
2018-03-25T08:22:37.613Z,82.59
2018-03-25T08:25:09.438Z,82.95
2018-03-25T08:27:38.609Z,82.68
2018-03-25T08:30:08.907Z,83.07
2018-03-25T08:32:40.219Z,82.75
2018-03-25T08:35:12.990Z,83.06
2018-03-25T08:37:43.185Z,83.27
2018-03-25T14:05:01.088Z,87.20
2018-03-25T14:07:30.462Z,87.03
2018-03-25T14:10:00.511Z,87.26
2018-03-25T14:12:32.290Z,87.70
2018-03-25T14:15:02.931Z,87.83
2018-03-25T14:17:34.174Z,87.56
2018-03-25T14:20:05.053Z,88.06
2018-03-25T14:22:35.058Z,88.34
2018-03-25T14:27:40.662Z,87.84
2018-03-25T14:30:10.436Z,87.70
2018-03-25T14:32:41.878Z,87.33
2018-03-25T14:35:12.014Z,87.54
2018-03-25T14:37:43.947Z,87.30
2018-03-25T14:40:14.101Z,87.67
2018-03-25T14:42:46.266Z,87.81
2018-03-25T14:45:17.909Z,87.87
2018-03-25T14:47:47.612Z,87.47
2018-03-25T14:50:18.087Z,87.85
2018-03-25T14:52:51.977Z,87.79
2018-03-25T14:58:41.891Z,87.15
2018-03-25T15:01:13.070Z,87.64
2018-03-25T15:03:43.288Z,87.58
2018-03-25T15:06:15.595Z,87.89
2018-03-25T15:08:47.629Z,87.84
2018-03-25T15:11:19.258Z,88.12
2018-03-25T15:13:48.682Z,87.78
2018-03-25T15:16:18.677Z,88.16
2018-03-25T15:18:48.776Z,88.36
2018-03-25T15:21:21.759Z,88.48
2018-03-25T15:23:51.369Z,88.65
2018-03-25T15:26:23.138Z,88.57
2018-03-25T15:28:53.418Z,89.26
2018-03-25T15:31:22.808Z,89.08
2018-03-25T15:33:53.752Z,88.78
2018-03-25T15:36:24.227Z,88.64
2018-03-25T15:38:53.194Z,88.91
2018-03-25T15:43:56.201Z,88.74
2018-03-25T15:46:25.340Z,88.43
2018-03-25T15:48:55.181Z,88.83
2018-03-25T15:51:25.401Z,89.03
2018-03-25T15:53:54.632Z,88.67
2018-03-25T15:56:25.606Z,88.84
2018-03-25T15:58:54.589Z,88.47
2018-03-25T16:01:23.845Z,88.66
2018-03-25T16:03:53.792Z,88.93
2018-03-25T16:06:22.940Z,89.03
2018-03-25T16:08:51.741Z,89.54
2018-03-25T16:11:21.814Z,89.77
2018-03-25T16:13:50.836Z,89.78
2018-03-25T16:16:19.882Z,89.55
2018-03-25T16:18:49.089Z,89.86
2018-03-25T16:21:19.223Z,89.82
2018-03-25T16:23:48.348Z,90.53
2018-03-25T16:26:18.375Z,90.62
2018-03-25T16:28:48.602Z,90.81
2018-03-25T16:31:18.227Z,91.04
2018-03-25T16:33:47.408Z,91.59
2018-03-25T16:36:16.526Z,91.59
2018-03-25T16:38:46.572Z,91.47
2018-03-25T16:41:15.813Z,91.95
2018-03-25T16:46:13.271Z,92.01
2018-03-25T16:48:42.600Z,92.65
2018-03-25T16:51:12.079Z,92.92
2018-03-25T16:53:42.757Z,93.05
2018-03-25T16:56:12.973Z,93.27
2018-03-25T16:58:42.596Z,93.69
2018-03-25T17:01:11.558Z,93.62
2018-03-25T17:03:40.662Z,93.88
2018-03-25T17:06:11.078Z,94.21
2018-03-25T17:08:40.281Z,93.54
2018-03-25T17:11:11.307Z,93.48
2018-03-25T17:13:40.513Z,93.56
2018-03-25T17:16:10.224Z,93.46
2018-03-25T17:18:39.453Z,93.44
2018-03-25T17:21:11.774Z,93.41
2018-03-25T17:23:40.872Z,93.57
2018-03-25T17:26:09.872Z,93.49
2018-03-25T17:28:43.831Z,93.21
2018-03-25T17:31:13.809Z,94.17
2018-03-25T17:33:43.211Z,94.90
2018-03-25T17:36:15.344Z,94.98
2018-03-25T17:38:44.532Z,94.66
2018-03-25T17:41:14.707Z,94.33
2018-03-25T17:43:45.125Z,94.73
2018-03-25T17:46:14.315Z,95.39
2018-03-25T17:48:43.625Z,95.92
2018-03-25T17:51:13.581Z,95.79
2018-03-25T17:53:42.791Z,95.73
2018-03-25T17:56:12.436Z,95.49
2018-03-25T17:58:42.983Z,95.18
2018-03-25T18:01:12.125Z,95.19
2018-03-25T18:03:42.553Z,95.19
2018-03-25T18:06:12.535Z,95.80
2018-03-25T18:08:42.359Z,96.56
2018-03-25T18:11:12.052Z,97.15
2018-03-25T18:13:44.552Z,97.18
2018-03-25T18:16:13.923Z,96.86
2018-03-25T18:18:43.785Z,96.86
2018-03-25T18:23:48.183Z,97.58
2018-03-25T18:26:18.307Z,97.67
2018-03-25T18:28:48.853Z,97.47
2018-03-25T18:31:19.651Z,97.37
2018-03-25T18:33:50.148Z,96.67
2018-03-25T18:36:28.433Z,97.08
2018-03-25T18:38:59.627Z,97.39
2018-03-25T18:41:29.762Z,97.08
2018-03-25T18:43:59.507Z,97.48
2018-03-25T18:46:29.158Z,97.11
2018-03-25T18:48:58.682Z,97.20
2018-03-25T18:51:28.551Z,97.34
2018-03-25T18:54:00.394Z,97.19
2018-03-25T18:56:29.787Z,97.44
2018-03-25T18:58:59.527Z,97.71
2018-03-25T19:01:29.690Z,97.28
2018-03-25T19:03:59.283Z,97.82
2018-03-25T19:06:29.672Z,98.52
2018-03-25T19:08:59.860Z,98.61
2018-03-25T19:11:29.864Z,98.15
2018-03-25T19:13:59.398Z,98.33
2018-03-25T19:19:03.444Z,98.84
2018-03-25T19:21:35.575Z,98.49
2018-03-25T19:24:05.852Z,98.36
2018-03-25T19:26:36.036Z,98.46
2018-03-25T19:29:06.511Z,98.54
2018-03-25T19:31:35.370Z,98.47
2018-03-25T19:34:04.325Z,98.03
2018-03-25T19:36:35.366Z,97.59
2018-03-25T19:39:04.734Z,98.26
2018-03-25T19:41:35.098Z,98.11
2018-03-25T19:44:07.060Z,98.43
2018-03-25T19:49:37.243Z,98.68
2018-03-25T19:52:06.852Z,99.73
2018-03-25T19:54:36.635Z,99.21
2018-03-25T19:57:06.446Z,98.80
2018-03-25T19:59:35.678Z,98.75
2018-03-25T20:02:04.780Z,98.22
2018-03-25T20:04:34.590Z,97.99
2018-03-25T20:07:03.894Z,98.51
2018-03-25T20:09:33.095Z,98.33
2018-03-25T20:12:03.159Z,98.45
2018-03-25T20:14:32.410Z,98.55
2018-03-25T20:17:01.462Z,98.84
2018-03-25T20:19:31.843Z,99.33
2018-03-25T20:22:00.878Z,99.96
2018-03-25T20:24:30.147Z,99.73
2018-03-25T20:26:59.319Z,99.47
2018-03-25T20:29:28.534Z,98.78
2018-03-25T20:31:57.635Z,98.86
2018-03-25T20:34:26.677Z,99.26
2018-03-25T20:36:57.315Z,99.61
2018-03-25T20:39:26.690Z,99.32
2018-03-25T20:41:56.644Z,99.08
2018-03-25T20:44:26.530Z,99.78
2018-03-25T20:46:55.638Z,100.00
2018-03-25T20:49:25.110Z,99.85
2018-03-25T20:51:54.655Z,99.79
2018-03-25T20:54:23.823Z,99.99
2018-03-25T20:56:53.024Z,99.93
2018-03-25T20:59:21.854Z,99.29
2018-03-25T21:01:52.506Z,99.39
2018-03-25T21:04:21.510Z,99.13
2018-03-25T21:06:51.010Z,99.68
2018-03-25T21:09:25.273Z,99.76
2018-03-25T21:11:54.502Z,99.74
2018-03-25T21:14:23.630Z,100.00
2018-03-25T21:16:54.415Z,100.00
2018-03-25T21:19:24.080Z,100.00
2018-03-25T21:21:58.316Z,100.00
2018-03-25T21:24:28.849Z,99.43
2018-03-25T21:26:58.694Z,99.18
2018-03-25T21:29:27.666Z,99.00
2018-03-25T21:31:57.391Z,98.94
2018-03-25T21:34:28.321Z,99.11
2018-03-25T21:36:58.100Z,99.10
2018-03-25T21:39:27.255Z,98.89
2018-03-25T21:41:56.346Z,99.34
2018-03-25T21:44:26.192Z,99.50
2018-03-25T21:46:56.350Z,99.39
2018-03-25T21:49:27.832Z,99.02
2018-03-25T21:51:57.068Z,99.32
2018-03-25T21:54:26.729Z,99.44
2018-03-25T21:56:56.908Z,99.88
2018-03-25T21:59:26.155Z,100.00
2018-03-25T22:01:55.755Z,100.00
2018-03-25T22:04:26.658Z,99.97
2018-03-25T22:06:55.772Z,99.14
2018-03-25T22:09:25.689Z,99.00
2018-03-25T22:11:55.983Z,98.76
2018-03-25T22:14:25.485Z,99.48
2018-03-25T22:16:55.343Z,99.69
2018-03-25T22:19:25.888Z,99.82
2018-03-25T22:21:55.028Z,99.37
2018-03-25T22:24:24.845Z,99.61
2018-03-25T22:29:29.781Z,100.00
2018-03-25T22:31:59.644Z,100.00
2018-03-25T22:34:30.949Z,100.00
2018-03-25T22:37:00.432Z,100.00
2018-03-25T22:39:29.501Z,100.00
2018-03-25T22:42:00.505Z,99.91
2018-03-25T22:44:29.601Z,100.00
2018-03-25T22:46:59.618Z,100.00
2018-03-25T22:49:31.542Z,99.69
2018-03-25T22:52:01.412Z,100.00
2018-03-25T22:54:30.592Z,99.76
2018-03-25T22:57:00.720Z,99.90
2018-03-25T22:59:33.293Z,99.97
2018-03-25T23:02:02.892Z,99.94
2018-03-25T23:04:33.360Z,99.82
2018-03-25T23:07:02.486Z,98.92
2018-03-25T23:09:32.521Z,98.94
2018-03-25T23:12:01.933Z,99.59
2018-03-25T23:14:31.309Z,99.47
2018-03-25T23:17:02.418Z,99.54
2018-03-25T23:19:31.432Z,99.56
2018-03-25T23:22:00.654Z,99.27
2018-03-25T23:24:29.953Z,99.04
2018-03-25T23:26:59.395Z,99.76
2018-03-25T23:29:28.628Z,99.75
2018-03-25T23:31:59.425Z,99.94
2018-03-25T23:34:29.434Z,99.89
2018-03-25T23:36:58.534Z,100.00
2018-03-25T23:39:28.098Z,100.00
2018-03-25T23:41:57.213Z,99.89
2018-03-25T23:44:26.234Z,99.59
2018-03-25T23:46:59.165Z,99.93
2018-03-25T23:49:28.868Z,99.90
2018-03-25T23:52:01.077Z,99.88
2018-03-25T23:54:30.198Z,99.75
2018-03-25T23:57:00.062Z,99.95
2018-03-25T23:59:30.123Z,99.90
